Time;durP1;ratioP1;P1;durP2;ratioP2;P2;SDS_P1;SDS_P2;PMS_P1;PMS_P2;Temp;Humidity;BMP_temperature;BMP_pressure;BME280_temperature;BME280_humidity;BME280_pressure;Samples;Min_cycle;Max_cycle;Signal;HPM_P1;HPM_P2
2022/11/18 00:01:25;;;;;;;16.77;12.77;;;;;;;;;;4985450;28;20482;-78
2022/11/18 00:03:51;;;;;;;21.10;15.13;;;;;;;;;;4993227;28;20039;-78
2022/11/18 00:06:24;;;;;;;25.83;20.48;;;;;;;;;;4993402;28;20424;-77
2022/11/18 00:08:51;;;;;;;33.70;24.15;;;;;;;;;;4993111;28;20042;-78
2022/11/18 00:16:49;;;;;;;21.27;15.80;;;;;;;;;;4973988;28;20045;-77
2022/11/18 00:19:16;;;;;;;20.90;14.43;;;;;;;;;;4973487;28;20059;-77
2022/11/18 00:21:42;;;;;;;20.20;14.77;;;;;;;;;;4973848;28;20043;-77
2022/11/18 00:24:09;;;;;;;20.55;15.23;;;;;;;;;;4973569;28;20118;-77
2022/11/18 00:26:35;;;;;;;15.25;12.35;;;;;;;;;;4973459;28;20058;-77
2022/11/18 00:29:01;;;;;;;17.45;13.35;;;;;;;;;;4991834;28;20042;-77
2022/11/18 00:31:28;;;;;;;17.02;13.43;;;;;;;;;;4992738;28;20038;-77
2022/11/18 00:33:54;;;;;;;17.02;13.77;;;;;;;;;;4992721;28;20035;-78
2022/11/18 00:36:20;;;;;;;18.02;13.90;;;;;;;;;;4974205;28;20041;-77
2022/11/18 00:38:46;;;;;;;20.17;14.48;;;;;;;;;;4973263;28;20038;-77
2022/11/18 00:41:13;;;;;;;21.70;14.43;;;;;;;;;;4973497;28;20042;-77
2022/11/18 00:43:40;;;;;;;18.60;14.50;;;;;;;;;;4973264;28;20106;-77
2022/11/18 00:46:07;;;;;;;18.52;13.00;;;;;;;;;;4989034;28;20038;-77
2022/11/18 00:48:33;;;;;;;17.58;12.75;;;;;;;;;;4992573;28;20068;-77
2022/11/18 00:51:07;;;;;;;16.23;12.50;;;;;;;;;;4992658;28;20031;-77
2022/11/18 00:53:33;;;;;;;16.48;13.00;;;;;;;;;;4992474;28;20057;-77
2022/11/18 00:55:59;;;;;;;17.98;13.27;;;;;;;;;;4983659;28;20493;-77
2022/11/18 00:58:25;;;;;;;17.30;13.23;;;;;;;;;;4975213;28;20039;-77
2022/11/18 01:00:52;;;;;;;17.83;13.15;;;;;;;;;;4973268;28;20033;-78
2022/11/18 01:03:18;;;;;;;14.30;12.13;;;;;;;;;;4973218;28;20038;-78
2022/11/18 01:05:44;;;;;;;18.25;13.02;;;;;;;;;;4984341;28;20117;-78
2022/11/18 01:08:11;;;;;;;14.02;11.35;;;;;;;;;;4992498;28;20031;-78
2022/11/18 01:10:38;;;;;;;15.52;11.65;;;;;;;;;;4992447;28;20097;-78
2022/11/18 01:13:20;;;;;;;16.77;13.02;;;;;;;;;;4995462;28;20505;-77
2022/11/18 01:15:46;;;;;;;15.15;11.55;;;;;;;;;;4984431;28;20493;-78
2022/11/18 01:18:12;;;;;;;19.50;14.60;;;;;;;;;;4976864;28;20023;-77
2022/11/18 01:20:38;;;;;;;20.30;14.38;;;;;;;;;;4976653;28;20082;-78
2022/11/18 01:23:04;;;;;;;19.80;14.55;;;;;;;;;;4976824;28;20043;-78
2022/11/18 01:25:31;;;;;;;17.48;14.50;;;;;;;;;;4985663;28;20066;-78
2022/11/18 01:27:57;;;;;;;17.30;13.05;;;;;;;;;;4996247;28;20437;-78
2022/11/18 01:30:23;;;;;;;17.58;13.52;;;;;;;;;;4995975;28;20477;-77
2022/11/18 01:32:49;;;;;;;15.40;12.77;;;;;;;;;;4996108;28;20389;-78
2022/11/18 01:35:15;;;;;;;18.25;13.25;;;;;;;;;;4988648;28;20027;-77
2022/11/18 01:37:41;;;;;;;16.27;13.13;;;;;;;;;;4976523;28;20042;-77
2022/11/18 01:40:08;;;;;;;15.75;11.45;;;;;;;;;;4976650;28;20418;-78
2022/11/18 01:42:34;;;;;;;14.27;10.50;;;;;;;;;;4976458;28;20038;-77
2022/11/18 01:45:23;;;;;;;13.43;11.07;;;;;;;;;;4980888;28;20030;-77
2022/11/18 01:48:10;;;;;;;16.05;12.02;;;;;;;;;;4985997;28;20125;-77
2022/11/18 01:50:38;;;;;;;15.63;12.07;;;;;;;;;;4982430;28;20410;-78
2022/11/18 01:53:07;;;;;;;13.82;10.73;;;;;;;;;;4995739;28;20528;-77
2022/11/18 01:55:34;;;;;;;16.17;10.85;;;;;;;;;;4986420;28;20027;-77
2022/11/18 01:58:07;;;;;;;14.70;10.70;;;;;;;;;;4976162;28;20034;-78
2022/11/18 02:00:33;;;;;;;14.77;11.32;;;;;;;;;;4976138;28;20026;-78
2022/11/18 02:03:01;;;;;;;13.95;10.15;;;;;;;;;;4975991;28;20155;-78
2022/11/18 02:05:27;;;;;;;14.52;9.88;;;;;;;;;;4983298;28;20035;-77
2022/11/18 02:07:53;;;;;;;14.60;10.32;;;;;;;;;;4993712;28;20080;-78
2022/11/18 02:10:21;;;;;;;13.52;10.23;;;;;;;;;;4993711;28;20053;-77
2022/11/18 02:12:48;;;;;;;12.10;9.57;;;;;;;;;;4995374;28;20048;-78
2022/11/18 02:15:14;;;;;;;14.48;10.10;;;;;;;;;;4989444;28;20089;-77
2022/11/18 02:17:47;;;;;;;12.48;8.98;;;;;;;;;;4975828;28;20471;-77
2022/11/18 02:20:22;;;;;;;13.93;9.27;;;;;;;;;;4975545;28;20138;-77
2022/11/18 02:23:03;;;;;;;14.88;11.18;;;;;;;;;;4975811;28;20037;-77
2022/11/18 02:25:33;;;;;;;11.55;9.30;;;;;;;;;;4982431;28;20027;-77
2022/11/18 02:28:02;;;;;;;13.43;9.80;;;;;;;;;;4995232;28;20033;-77
2022/11/18 02:30:32;;;;;;;13.57;9.50;;;;;;;;;;4995069;28;20117;-77
2022/11/18 02:33:04;;;;;;;13.93;10.40;;;;;;;;;;4995007;28;20026;-77
2022/11/18 02:35:39;;;;;;;12.95;9.48;;;;;;;;;;4987491;28;20045;-78
2022/11/18 02:38:08;;;;;;;12.90;9.70;;;;;;;;;;4975603;28;20854;-77
2022/11/18 02:40:41;;;;;;;13.82;10.52;;;;;;;;;;4975488;28;20034;-77
2022/11/18 02:43:27;;;;;;;14.13;10.48;;;;;;;;;;4975406;28;20038;-77
2022/11/18 02:45:56;;;;;;;13.95;10.25;;;;;;;;;;4984771;28;20041;-77
2022/11/18 02:48:23;;;;;;;14.98;11.48;;;;;;;;;;4994597;28;20036;-78
2022/11/18 02:50:49;;;;;;;12.90;9.85;;;;;;;;;;4994560;28;20540;-78
2022/11/18 02:53:17;;;;;;;12.57;10.05;;;;;;;;;;4994604;28;20030;-77
2022/11/18 02:55:43;;;;;;;13.90;9.73;;;;;;;;;;4986020;28;20651;-78
2022/11/18 02:58:10;;;;;;;15.43;11.23;;;;;;;;;;4975260;28;20397;-77
2022/11/18 03:00:37;;;;;;;13.48;10.38;;;;;;;;;;4978864;28;20504;-77
2022/11/18 03:03:23;;;;;;;13.02;9.85;;;;;;;;;;4989579;28;20034;-78
2022/11/18 03:05:54;;;;;;;13.93;9.98;;;;;;;;;;4975057;28;20035;-77
2022/11/18 03:08:22;;;;;;;15.85;11.15;;;;;;;;;;4974869;28;20031;-78
2022/11/18 03:10:53;;;;;;;14.20;10.98;;;;;;;;;;4974692;28;20035;-78
2022/11/18 03:13:22;;;;;;;15.63;11.82;;;;;;;;;;4981260;28;20068;-78
2022/11/18 03:15:55;;;;;;;15.20;10.20;;;;;;;;;;4994330;28;20030;-77
2022/11/18 03:18:30;;;;;;;12.25;9.13;;;;;;;;;;4993952;28;20405;-77
2022/11/18 03:21:18;;;;;;;13.77;10.40;;;;;;;;;;4994016;28;20100;-78
2022/11/18 03:23:49;;;;;;;13.52;9.45;;;;;;;;;;4983930;28;20047;-78
2022/11/18 03:26:19;;;;;;;13.80;10.25;;;;;;;;;;4974572;28;20031;-77
2022/11/18 03:28:48;;;;;;;12.70;9.43;;;;;;;;;;4974528;28;20501;-78
2022/11/18 03:31:20;;;;;;;12.98;9.20;;;;;;;;;;4974498;28;20042;-77
2022/11/18 03:33:48;;;;;;;10.30;8.65;;;;;;;;;;4983826;28;20030;-77
2022/11/18 03:36:16;;;;;;;12.95;9.13;;;;;;;;;;4992882;28;20034;-77
2022/11/18 03:38:44;;;;;;;11.27;8.60;;;;;;;;;;4993912;28;20057;-77
2022/11/18 03:41:11;;;;;;;12.40;9.05;;;;;;;;;;4981192;28;20064;-77
2022/11/18 03:43:39;;;;;;;13.13;10.23;;;;;;;;;;4974273;28;20034;-77
2022/11/18 03:46:12;;;;;;;13.20;9.82;;;;;;;;;;4974161;28;20158;-77
2022/11/18 03:48:41;;;;;;;15.27;8.60;;;;;;;;;;4974177;28;20525;-77
2022/11/18 03:51:09;;;;;;;11.75;8.73;;;;;;;;;;4985637;28;20053;-77
2022/11/18 03:53:37;;;;;;;10.23;8.23;;;;;;;;;;4993594;28;20026;-78
2022/11/18 03:56:22;;;;;;;12.43;8.10;;;;;;;;;;4993416;28;20484;-77
2022/11/18 03:59:02;;;;;;;10.15;8.25;;;;;;;;;;4993414;28;20030;-78
2022/11/18 04:01:35;;;;;;;9.18;7.90;;;;;;;;;;4978486;28;20092;-77
2022/11/18 04:04:01;;;;;;;10.75;8.43;;;;;;;;;;4974059;28;20030;-77
2022/11/18 04:06:46;;;;;;;12.27;8.90;;;;;;;;;;4973867;28;20034;-78
2022/11/18 04:09:20;;;;;;;10.25;8.65;;;;;;;;;;4973572;28;20027;-77
2022/11/18 04:12:04;;;;;;;11.27;8.90;;;;;;;;;;4990165;28;20131;-78
2022/11/18 04:14:34;;;;;;;13.88;10.30;;;;;;;;;;4993043;28;20343;-78
2022/11/18 04:17:04;;;;;;;13.75;9.80;;;;;;;;;;4993168;28;20027;-78
2022/11/18 04:19:30;;;;;;;13.70;9.77;;;;;;;;;;4992915;28;20062;-78
2022/11/18 04:21:56;;;;;;;14.85;10.75;;;;;;;;;;4993030;28;20030;-77
2022/11/18 04:24:22;;;;;;;13.48;9.20;;;;;;;;;;4974240;28;20398;-77
2022/11/18 04:26:48;;;;;;;11.93;10.00;;;;;;;;;;4973354;28;20034;-77
2022/11/18 04:29:15;;;;;;;11.75;9.80;;;;;;;;;;4973383;28;20066;-77
2022/11/18 04:31:41;;;;;;;12.63;9.35;;;;;;;;;;4973456;28;20026;-77
2022/11/18 04:34:07;;;;;;;11.35;8.90;;;;;;;;;;4973501;28;20034;-77
2022/11/18 04:36:34;;;;;;;18.05;14.20;;;;;;;;;;4974502;28;20030;-77
2022/11/18 04:39:00;;;;;;;11.98;9.40;;;;;;;;;;4973642;28;20031;-77
2022/11/18 04:41:54;;;;;;;9.70;7.82;;;;;;;;;;4973393;28;20034;-77
2022/11/18 04:44:12;;;;;;;11.80;7.78;;;;;;;;;;4972838;28;20054;-77
2022/11/18 04:46:39;;;;;;;12.57;8.43;;;;;;;;;;4973011;28;20039;-77
2022/11/18 04:49:06;;;;;;;13.98;9.82;;;;;;;;;;4978641;28;20076;-77
2022/11/18 04:51:32;;;;;;;11.18;8.35;;;;;;;;;;4992630;28;20034;-77
2022/11/18 04:53:58;;;;;;;10.90;8.15;;;;;;;;;;4992081;28;20034;-77
2022/11/18 04:56:24;;;;;;;9.82;8.18;;;;;;;;;;4982216;28;20097;-77
2022/11/18 04:58:50;;;;;;;10.18;8.50;;;;;;;;;;4973221;28;20045;-77
2022/11/18 05:01:16;;;;;;;9.88;7.25;;;;;;;;;;4972859;28;20031;-77
2022/11/18 05:03:42;;;;;;;10.25;7.70;;;;;;;;;;4973222;28;20496;-77
2022/11/18 05:06:08;;;;;;;10.43;7.85;;;;;;;;;;4975099;28;20027;-77
2022/11/18 05:08:34;;;;;;;11.48;7.85;;;;;;;;;;4992546;28;20037;-78
2022/11/18 05:13:50;;;;;;;10.93;7.65;;;;;;;;;;4992609;28;20543;-77
2022/11/18 05:16:16;;;;;;;9.82;8.38;;;;;;;;;;4992144;28;20034;-78
2022/11/18 05:18:42;;;;;;;33.35;24.90;;;;;;;;;;4986037;28;20030;-77
2022/11/18 05:21:08;;;;;;;45.70;33.38;;;;;;;;;;4972799;28;20062;-77
2022/11/18 05:23:34;;;;;;;38.17;29.77;;;;;;;;;;4972840;28;20031;-77
2022/11/18 05:26:04;;;;;;;18.17;14.25;;;;;;;;;;4973055;28;20039;-77
2022/11/18 05:28:30;;;;;;;15.13;10.80;;;;;;;;;;4972722;28;20050;-76
2022/11/18 05:30:56;;;;;;;28.75;16.30;;;;;;;;;;4972728;28;20046;-78
2022/11/18 05:33:22;;;;;;;14.52;10.85;;;;;;;;;;4991234;28;20502;-77
2022/11/18 05:35:48;;;;;;;13.10;9.13;;;;;;;;;;4992078;28;20154;-78
2022/11/18 05:38:14;;;;;;;10.48;8.25;;;;;;;;;;4991969;28;20026;-78
2022/11/18 05:40:43;;;;;;;15.48;12.38;;;;;;;;;;4991987;28;20030;-78
2022/11/18 05:43:10;;;;;;;25.13;19.85;;;;;;;;;;4992028;28;20026;-78
2022/11/18 05:45:36;;;;;;;37.78;25.98;;;;;;;;;;4992056;28;20089;-78
2022/11/18 05:48:03;;;;;;;16.63;13.95;;;;;;;;;;4991514;28;20034;-78
2022/11/18 05:50:30;;;;;;;16.00;13.85;;;;;;;;;;4991817;28;20042;-78
2022/11/18 05:52:56;;;;;;;16.20;13.57;;;;;;;;;;4991463;28;20093;-78
2022/11/18 05:55:24;;;;;;;11.88;9.93;;;;;;;;;;4991541;28;20061;-77
2022/11/18 05:57:50;;;;;;;13.90;10.65;;;;;;;;;;4991598;28;20038;-80
2022/11/18 06:00:16;;;;;;;114.15;89.30;;;;;;;;;;4994837;28;20113;-78
2022/11/18 06:02:43;;;;;;;31.60;25.83;;;;;;;;;;4987480;28;20030;-78
2022/11/18 06:05:09;;;;;;;39.45;25.52;;;;;;;;;;4995143;28;20033;-78
2022/11/18 06:07:39;;;;;;;29.45;22.40;;;;;;;;;;4995407;28;20037;-78
2022/11/18 06:10:05;;;;;;;25.05;18.42;;;;;;;;;;4994866;28;20039;-78
2022/11/18 06:12:33;;;;;;;22.88;16.80;;;;;;;;;;4995434;28;20109;-78
2022/11/18 06:15:20;;;;;;;21.35;17.02;;;;;;;;;;4995228;28;20030;-78
2022/11/18 06:17:54;;;;;;;24.80;17.25;;;;;;;;;;4991117;28;20034;-78
2022/11/18 06:20:21;;;;;;;25.05;19.55;;;;;;;;;;4980507;28;20063;-78
2022/11/18 06:22:49;;;;;;;42.90;33.45;;;;;;;;;;4983576;28;20042;-78
2022/11/18 06:25:15;;;;;;;52.15;38.22;;;;;;;;;;4985666;28;20033;-79
2022/11/18 06:27:42;;;;;;;30.42;25.08;;;;;;;;;;4987033;28;20109;-78
2022/11/18 06:30:08;;;;;;;32.03;24.92;;;;;;;;;;4980277;28;20041;-79
2022/11/18 06:32:34;;;;;;;28.67;21.55;;;;;;;;;;4980805;28;20034;-78
2022/11/18 06:35:00;;;;;;;24.83;20.33;;;;;;;;;;4985569;28;20038;-83
2022/11/18 06:37:26;;;;;;;43.17;29.75;;;;;;;;;;4986860;28;20045;-78
2022/11/18 06:39:52;;;;;;;96.85;65.40;;;;;;;;;;4994981;28;20030;-78
2022/11/18 06:45:03;;;;;;;;;;;;;;;;;;4990162;28;20089;-79
2022/11/18 06:47:29;;;;;;;31.63;22.02;;;;;;;;;;4985597;28;20000;-80
2022/11/18 06:49:56;;;;;;;21.45;16.67;;;;;;;;;;4985170;28;20038;-79
2022/11/18 06:52:23;;;;;;;21.67;17.50;;;;;;;;;;4993141;28;20023;-80
2022/11/18 06:54:49;;;;;;;25.40;19.50;;;;;;;;;;4973386;28;20141;-79
2022/11/18 06:57:15;;;;;;;22.77;17.27;;;;;;;;;;4981278;28;20033;-78
2022/11/18 06:59:41;;;;;;;18.83;14.45;;;;;;;;;;4995828;28;20073;-79
2022/11/18 07:02:07;;;;;;;24.38;20.05;;;;;;;;;;4991708;28;20036;-78
2022/11/18 07:04:38;;;;;;;21.17;16.50;;;;;;;;;;4991795;28;20034;-78
2022/11/18 07:07:04;;;;;;;12.63;11.32;;;;;;;;;;4995223;28;20129;-79
2022/11/18 07:09:34;;;;;;;16.33;12.10;;;;;;;;;;4986537;28;20057;-84
2022/11/18 07:12:00;;;;;;;15.63;13.23;;;;;;;;;;4974230;28;20034;-78
2022/11/18 07:14:26;;;;;;;12.55;10.40;;;;;;;;;;4984104;28;20035;-78
2022/11/18 07:16:53;;;;;;;15.60;12.35;;;;;;;;;;4983810;28;20027;-80
2022/11/18 07:19:19;;;;;;;17.08;12.85;;;;;;;;;;4965969;28;20045;-79
2022/11/18 07:21:45;;;;;;;12.88;10.93;;;;;;;;;;4988589;28;20540;-79
2022/11/18 07:24:12;;;;;;;19.15;11.52;;;;;;;;;;4991500;28;20109;-78
2022/11/18 07:26:38;;;;;;;28.42;17.85;;;;;;;;;;4991204;28;20053;-78
2022/11/18 07:29:05;;;;;;;48.70;24.15;;;;;;;;;;4991224;28;20034;-79
2022/11/18 07:31:31;;;;;;;36.88;19.00;;;;;;;;;;4991069;28;20038;-80
2022/11/18 07:33:57;;;;;;;61.70;25.08;;;;;;;;;;4990490;28;20030;-79
2022/11/18 07:36:24;;;;;;;71.22;26.42;;;;;;;;;;4991544;28;20077;-79
2022/11/18 07:38:51;;;;;;;90.70;29.08;;;;;;;;;;4990960;28;20042;-80
2022/11/18 07:41:18;;;;;;;115.72;40.55;;;;;;;;;;4991264;28;20062;-79
2022/11/18 07:43:45;;;;;;;128.30;46.58;;;;;;;;;;4990276;28;20512;-80
2022/11/18 07:46:15;;;;;;;52.53;22.27;;;;;;;;;;4982827;28;20126;-80
2022/11/18 07:48:42;;;;;;;59.53;23.23;;;;;;;;;;4978469;28;20037;-81
2022/11/18 07:51:08;;;;;;;49.40;20.05;;;;;;;;;;4972434;28;20497;-81
2022/11/18 07:53:35;;;;;;;21.80;13.50;;;;;;;;;;4980287;28;20434;-83
2022/11/18 07:56:01;;;;;;;29.48;15.57;;;;;;;;;;4981493;28;20026;-80
2022/11/18 07:58:28;;;;;;;56.60;23.42;;;;;;;;;;4990888;28;20125;-80
2022/11/18 08:00:54;;;;;;;15.13;9.60;;;;;;;;;;4993851;28;20033;-80
2022/11/18 08:03:24;;;;;;;46.50;17.10;;;;;;;;;;5000294;28;20034;-81
2022/11/18 08:05:52;;;;;;;27.33;12.93;;;;;;;;;;4999525;28;20065;-81
2022/11/18 08:08:25;;;;;;;31.35;13.68;;;;;;;;;;5004487;28;20280;-81
2022/11/18 08:10:51;;;;;;;11.77;8.40;;;;;;;;;;4991220;28;20129;-80
2022/11/18 08:13:17;;;;;;;43.95;17.98;;;;;;;;;;4986049;28;20029;-83
2022/11/18 08:15:43;;;;;;;68.32;28.10;;;;;;;;;;4974467;28;20113;-78
2022/11/18 08:18:09;;;;;;;76.18;34.10;;;;;;;;;;4987465;28;20066;-80
2022/11/18 08:20:36;;;;;;;57.25;21.40;;;;;;;;;;4983105;28;20133;-80
2022/11/18 08:23:05;;;;;;;305.77;101.20;;;;;;;;;;4978095;28;20035;-79
2022/11/18 08:25:31;;;;;;;309.90;106.38;;;;;;;;;;4991312;28;20543;-79
2022/11/18 08:27:57;;;;;;;356.25;125.90;;;;;;;;;;5010307;28;20034;-81
2022/11/18 08:30:23;;;;;;;406.55;142.85;;;;;;;;;;4989174;28;20469;-79
2022/11/18 08:32:49;;;;;;;231.32;91.43;;;;;;;;;;4985158;28;20040;-81
2022/11/18 08:35:15;;;;;;;203.80;75.47;;;;;;;;;;4978680;28;20772;-82
2022/11/18 08:37:43;;;;;;;87.93;32.85;;;;;;;;;;4990139;28;20026;-80
2022/11/18 08:40:10;;;;;;;51.75;24.23;;;;;;;;;;4975076;28;20437;-78
2022/11/18 08:42:59;;;;;;;37.65;19.15;;;;;;;;;;4991970;28;20022;-81
2022/11/18 08:45:30;;;;;;;25.77;15.73;;;;;;;;;;4964314;28;20125;-81
2022/11/18 08:48:28;;;;;;;21.42;13.10;;;;;;;;;;4968652;28;20046;-82
2022/11/18 08:51:24;;;;;;;16.67;11.98;;;;;;;;;;4930823;29;20052;-79
2022/11/18 08:53:50;;;;;;;14.75;11.65;;;;;;;;;;4911046;28;20047;-82
2022/11/18 08:56:18;;;;;;;14.38;11.30;;;;;;;;;;4931223;29;20038;-77
2022/11/18 08:58:44;;;;;;;12.05;9.80;;;;;;;;;;4931180;29;20429;-75
2022/11/18 09:01:10;;;;;;;38.35;35.47;;;;;;;;;;4936451;28;20043;-77
2022/11/18 09:03:36;;;;;;;20.90;16.55;;;;;;;;;;4933985;29;20031;-78
2022/11/18 09:06:13;;;;;;;18.95;16.33;;;;;;;;;;4935080;29;20144;-77
2022/11/18 09:08:40;;;;;;;17.13;13.02;;;;;;;;;;4931256;29;20064;-78
2022/11/18 09:11:17;;;;;;;28.45;22.55;;;;;;;;;;4916368;29;20060;-80
2022/11/18 09:13:44;;;;;;;19.08;17.08;;;;;;;;;;4912760;29;20483;-81
2022/11/18 09:16:10;;;;;;;17.77;15.13;;;;;;;;;;4936191;29;20046;-80
2022/11/18 09:18:37;;;;;;;20.40;13.75;;;;;;;;;;4947870;28;20091;-79
2022/11/18 09:21:06;;;;;;;29.70;19.92;;;;;;;;;;4944557;28;20406;-81
2022/11/18 09:23:34;;;;;;;33.00;22.00;;;;;;;;;;4974509;28;20034;-79
2022/11/18 09:26:19;;;;;;;47.95;28.92;;;;;;;;;;4985761;28;20027;-79
2022/11/18 09:28:54;;;;;;;29.30;19.45;;;;;;;;;;4971555;28;20066;-82
2022/11/18 09:31:23;;;;;;;30.20;21.00;;;;;;;;;;4970508;28;20038;-84
2022/11/18 09:33:51;;;;;;;27.80;20.30;;;;;;;;;;4963896;28;20056;-84
2022/11/18 09:36:19;;;;;;;37.53;26.17;;;;;;;;;;4983474;28;20897;-83
2022/11/18 09:38:45;;;;;;;22.05;15.13;;;;;;;;;;4989427;28;20034;-78
2022/11/18 09:41:29;;;;;;;22.15;16.10;;;;;;;;;;4992571;28;20081;-83
2022/11/18 09:44:14;;;;;;;33.47;23.75;;;;;;;;;;4991187;28;20026;-85
2022/11/18 09:46:40;;;;;;;;;;;;;;;;;;4995718;28;20050;-77
2022/11/18 09:49:36;;;;;;;17.70;12.57;;;;;;;;;;4981043;28;19914;-79
2022/11/18 09:52:10;;;;;;;18.95;14.90;;;;;;;;;;4960804;28;20482;-79
2022/11/18 09:54:38;;;;;;;18.23;12.77;;;;;;;;;;4991311;28;20046;-78
2022/11/18 09:57:11;;;;;;;25.75;16.70;;;;;;;;;;4972738;28;20431;-79
2022/11/18 09:59:37;;;;;;;23.77;15.70;;;;;;;;;;4980446;28;20195;-77
2022/11/18 10:02:20;;;;;;;31.05;22.13;;;;;;;;;;4995450;28;20058;-79
2022/11/18 10:04:48;;;;;;;28.60;20.17;;;;;;;;;;4980400;28;20398;-80
2022/11/18 10:07:31;;;;;;;16.38;12.65;;;;;;;;;;5013787;28;20038;-78
2022/11/18 10:09:57;;;;;;;16.95;13.77;;;;;;;;;;4991277;28;20027;-83
2022/11/18 10:12:39;;;;;;;19.55;15.40;;;;;;;;;;4985498;28;20474;-82
2022/11/18 10:15:24;;;;;;;17.58;13.68;;;;;;;;;;4982402;28;20023;-81
2022/11/18 10:17:59;;;;;;;19.83;15.98;;;;;;;;;;4992828;28;20120;-79
2022/11/18 10:20:35;;;;;;;18.27;14.27;;;;;;;;;;5001933;28;20054;-81
2022/11/18 10:23:19;;;;;;;16.02;11.95;;;;;;;;;;4986831;28;20456;-81
2022/11/18 10:25:46;;;;;;;15.20;10.88;;;;;;;;;;4994603;28;20034;-78
2022/11/18 10:28:31;;;;;;;13.70;9.18;;;;;;;;;;4991504;28;20125;-81
2022/11/18 10:31:04;;;;;;;30.40;17.25;;;;;;;;;;4998684;28;20129;-81
2022/11/18 10:33:30;;;;;;;31.50;18.85;;;;;;;;;;5003141;28;20018;-77
2022/11/18 10:36:13;;;;;;;21.38;16.85;;;;;;;;;;4997231;28;20425;-79
2022/11/18 10:38:39;;;;;;;19.02;14.38;;;;;;;;;;4998563;28;20404;-79
2022/11/18 10:41:07;;;;;;;18.23;13.13;;;;;;;;;;4988965;28;20490;-82
2022/11/18 10:43:52;;;;;;;21.17;14.20;;;;;;;;;;4966265;28;20039;-82
2022/11/18 10:46:38;;;;;;;153.38;64.18;;;;;;;;;;4988346;28;20065;-81
2022/11/18 10:49:22;;;;;;;31.73;18.38;;;;;;;;;;4984491;28;20582;-81
2022/11/18 10:52:05;;;;;;;37.28;19.80;;;;;;;;;;4986478;28;20037;-79
2022/11/18 10:54:32;;;;;;;25.73;17.02;;;;;;;;;;4994364;28;20038;-81
2022/11/18 10:57:10;;;;;;;17.77;13.43;;;;;;;;;;4980737;28;20489;-79
2022/11/18 10:59:54;;;;;;;22.75;15.13;;;;;;;;;;5001646;28;20038;-82
2022/11/18 11:02:38;;;;;;;25.70;14.73;;;;;;;;;;4990324;28;20030;-81
2022/11/18 11:05:16;;;;;;;19.17;13.85;;;;;;;;;;4986979;28;20565;-78
2022/11/18 11:07:42;;;;;;;22.48;12.52;;;;;;;;;;4992881;28;20066;-81
2022/11/18 11:10:08;;;;;;;21.40;14.65;;;;;;;;;;4970589;28;20486;-79
2022/11/18 11:12:35;;;;;;;14.60;10.07;;;;;;;;;;4972975;28;20086;-80
2022/11/18 11:15:03;;;;;;;22.40;12.75;;;;;;;;;;4990384;28;20034;-77
2022/11/18 11:17:32;;;;;;;15.02;10.77;;;;;;;;;;4988796;28;20504;-81
2022/11/18 11:20:17;;;;;;;11.75;10.48;;;;;;;;;;5004126;28;20466;-84
2022/11/18 11:22:46;;;;;;;17.98;11.27;;;;;;;;;;4997778;28;20405;-80
2022/11/18 11:25:16;;;;;;;21.38;12.63;;;;;;;;;;4980832;28;20037;-80
2022/11/18 11:28:01;;;;;;;15.63;9.45;;;;;;;;;;4983239;28;20120;-80
2022/11/18 11:30:28;;;;;;;12.30;9.82;;;;;;;;;;4981979;28;20104;-77
2022/11/18 11:32:54;;;;;;;14.98;9.50;;;;;;;;;;4984884;28;20101;-78
2022/11/18 11:35:39;;;;;;;16.75;12.02;;;;;;;;;;4986125;28;20041;-80
2022/11/18 11:38:23;;;;;;;16.58;12.32;;;;;;;;;;4981750;28;20066;-84
2022/11/18 11:40:49;;;;;;;;;;;;;;;;;;4982882;28;20331;-83
2022/11/18 11:43:33;;;;;;;21.40;11.30;;;;;;;;;;4981701;28;19964;-82
2022/11/18 11:46:18;;;;;;;18.90;10.80;;;;;;;;;;4969429;28;20714;-82
2022/11/18 11:48:47;;;;;;;55.85;37.72;;;;;;;;;;4984501;28;20030;-80
2022/11/18 11:51:23;;;;;;;33.90;17.95;;;;;;;;;;4982866;28;20042;-79
2022/11/18 11:54:12;;;;;;;22.98;12.70;;;;;;;;;;4987032;28;20402;-81
2022/11/18 11:56:42;;;;;;;18.13;10.57;;;;;;;;;;4970688;28;20112;-83
2022/11/18 11:59:08;;;;;;;33.17;15.10;;;;;;;;;;4980681;28;20398;-81
2022/11/18 12:01:39;;;;;;;23.35;13.60;;;;;;;;;;4978381;28;20026;-80
2022/11/18 12:04:05;;;;;;;87.78;30.02;;;;;;;;;;4981569;28;20142;-80
2022/11/18 12:06:35;;;;;;;31.05;15.20;;;;;;;;;;4984102;28;20386;-81
2022/11/18 12:09:01;;;;;;;35.60;16.50;;;;;;;;;;4965918;28;20169;-80
2022/11/18 12:11:36;;;;;;;35.72;13.48;;;;;;;;;;4977619;28;20054;-80
2022/11/18 12:14:06;;;;;;;46.75;20.48;;;;;;;;;;4981688;28;20041;-83
2022/11/18 12:16:44;;;;;;;22.67;14.10;;;;;;;;;;4991159;28;20050;-80
2022/11/18 12:19:13;;;;;;;31.10;15.18;;;;;;;;;;4988480;28;20058;-80
2022/11/18 12:21:59;;;;;;;27.15;17.83;;;;;;;;;;4979170;28;20038;-82
2022/11/18 12:24:50;;;;;;;34.38;26.05;;;;;;;;;;4985490;28;20027;-83
2022/11/18 12:27:29;;;;;;;485.80;187.48;;;;;;;;;;4981096;28;20532;-81
2022/11/18 12:29:58;;;;;;;348.15;127.35;;;;;;;;;;4980389;28;20046;-80
2022/11/18 12:32:45;;;;;;;179.98;69.60;;;;;;;;;;4971368;28;20134;-81
2022/11/18 12:35:11;;;;;;;155.02;62.03;;;;;;;;;;4970659;28;20121;-81
2022/11/18 12:44:00;;;;;;;149.70;56.83;;;;;;;;;;4979863;28;20029;-82
2022/11/18 12:46:26;;;;;;;139.57;52.38;;;;;;;;;;4988074;28;20379;-83
2022/11/18 12:48:56;;;;;;;144.63;52.35;;;;;;;;;;4983821;28;20026;-80
2022/11/18 12:51:23;;;;;;;155.25;55.25;;;;;;;;;;4985288;28;20103;-80
2022/11/18 12:53:50;;;;;;;112.30;43.25;;;;;;;;;;4983840;28;20094;-80
2022/11/18 12:56:24;;;;;;;110.35;45.00;;;;;;;;;;4984381;28;20081;-80
2022/11/18 12:58:51;;;;;;;153.38;55.63;;;;;;;;;;4972013;28;20116;-80
2022/11/18 13:01:19;;;;;;;19.38;11.77;;;;;;;;;;4981632;28;20518;-79
2022/11/18 13:03:46;;;;;;;32.85;15.73;;;;;;;;;;4982583;28;20445;-78
2022/11/18 13:06:18;;;;;;;79.53;31.17;;;;;;;;;;4974591;28;20416;-79
2022/11/18 13:08:49;;;;;;;12.43;8.48;;;;;;;;;;4983083;28;20077;-80
2022/11/18 13:19:43;;;;;;;11.60;5.93;;;;;;;;;;4986055;28;20065;-81
2022/11/18 13:25:21;;;;;;;9.88;6.57;;;;;;;;;;4986438;28;20173;-80
2022/11/18 13:27:51;;;;;;;8.23;4.90;;;;;;;;;;4984348;28;20038;-80
2022/11/18 13:30:17;;;;;;;7.47;5.07;;;;;;;;;;4985956;28;20039;-80
2022/11/18 13:32:45;;;;;;;5.88;5.03;;;;;;;;;;4989469;28;20045;-81
2022/11/18 13:35:11;;;;;;;7.90;5.45;;;;;;;;;;4989039;28;20093;-82
2022/11/18 13:37:47;;;;;;;8.38;5.38;;;;;;;;;;4990032;28;20117;-81
2022/11/18 13:40:36;;;;;;;9.88;7.05;;;;;;;;;;4992483;28;20536;-79
2022/11/18 13:43:02;;;;;;;8.75;5.60;;;;;;;;;;4991489;28;20030;-81
2022/11/18 13:45:29;;;;;;;10.80;6.10;;;;;;;;;;5006817;28;20484;-84
2022/11/18 13:47:58;;;;;;;10.82;5.95;;;;;;;;;;4981802;28;20098;-80
2022/11/18 13:50:25;;;;;;;11.23;6.43;;;;;;;;;;4981443;28;20437;-78
2022/11/18 13:53:21;;;;;;;294.63;116.22;;;;;;;;;;4974710;28;20114;-78
2022/11/18 13:56:06;;;;;;;32.65;15.32;;;;;;;;;;4985840;28;20037;-80
2022/11/18 13:58:42;;;;;;;11.18;7.60;;;;;;;;;;4983394;28;20042;-79
2022/11/18 14:01:27;;;;;;;22.75;10.80;;;;;;;;;;4988169;28;20371;-80
2022/11/18 14:03:55;;;;;;;10.05;7.13;;;;;;;;;;4992316;28;20038;-78
2022/11/18 14:06:25;;;;;;;12.63;7.30;;;;;;;;;;4985439;28;20058;-80
2022/11/18 14:09:03;;;;;;;8.07;5.55;;;;;;;;;;4976154;28;20041;-79
2022/11/18 14:11:37;;;;;;;9.23;5.45;;;;;;;;;;4982634;28;20038;-79
2022/11/18 14:14:03;;;;;;;;;;;;;;;;;;4978133;28;20438;-79
2022/11/18 14:16:31;;;;;;;11.23;6.65;;;;;;;;;;4972972;28;19956;-79
2022/11/18 14:19:36;;;;;;;6.85;4.97;;;;;;;;;;4971578;28;20134;-79
2022/11/18 14:22:03;;;;;;;7.28;6.00;;;;;;;;;;4972588;28;20617;-78
2022/11/18 14:24:34;;;;;;;8.25;5.57;;;;;;;;;;4972843;28;20127;-78
2022/11/18 14:27:20;;;;;;;7.32;4.93;;;;;;;;;;4957316;28;20022;-78
2022/11/18 14:30:04;;;;;;;7.80;5.75;;;;;;;;;;4971543;28;20130;-78
2022/11/18 14:32:30;;;;;;;7.35;5.53;;;;;;;;;;4973075;28;20106;-79
2022/11/18 14:34:58;;;;;;;9.27;5.80;;;;;;;;;;4957136;28;20113;-79
2022/11/18 14:37:24;;;;;;;15.52;11.30;;;;;;;;;;4973194;28;20031;-79
2022/11/18 14:39:58;;;;;;;10.95;6.55;;;;;;;;;;4972552;28;20050;-79
2022/11/18 14:42:34;;;;;;;8.40;5.97;;;;;;;;;;4972299;28;20511;-79
2022/11/18 14:45:01;;;;;;;10.90;6.20;;;;;;;;;;4971448;28;20101;-78
2022/11/18 14:47:29;;;;;;;50.58;32.50;;;;;;;;;;4971488;28;20037;-80
2022/11/18 14:49:55;;;;;;;14.85;9.35;;;;;;;;;;4967004;28;20048;-79
2022/11/18 14:52:21;;;;;;;9.95;7.57;;;;;;;;;;4965144;28;20098;-79
2022/11/18 14:54:47;;;;;;;9.45;7.07;;;;;;;;;;4961160;28;20027;-79
2022/11/18 14:57:15;;;;;;;10.05;7.30;;;;;;;;;;4941176;28;20034;-79
2022/11/18 14:59:42;;;;;;;8.05;7.25;;;;;;;;;;4974155;28;20027;-79
2022/11/18 15:02:16;;;;;;;9.02;7.63;;;;;;;;;;4974704;28;20031;-78
2022/11/18 15:04:42;;;;;;;10.97;7.40;;;;;;;;;;4953430;28;20074;-78
2022/11/18 15:07:27;;;;;;;17.13;13.43;;;;;;;;;;4956770;28;20779;-78
2022/11/18 15:09:53;;;;;;;9.43;7.80;;;;;;;;;;4970951;28;20038;-78